KLKV/LKV METAR and TAF weather

Enter ICAO airport designator
Station Type Date Time Source
KLKV METAR 2022/01/26 08:53 UTC NOAA

KLKV 260853Z AUTO 33005KT 10SM CLR M09/M11 A3022 RMK AO2 SLP271 T10891106 56007 FZRANO


Station Type Date Time Source
KLKV Decoded METAR 2022/01/26 08:53 UTC NOAA

Lakeview, Lake County Airport, OR, United States (KLKV) 42-10N 120-24W
Jan 26, 2022 - 03:53 AM EST / 2022.01.26 0853 UTC
Wind: from the NNW (330 degrees) at 6 MPH (5 KT):0
Visibility: 10 mile(s):0
Sky conditions: clear
Temperature: 16.0 F (-8.9 C)
Windchill: 6 F (-14 C):1
Dew Point: 12.9 F (-10.6 C)
Relative Humidity: 87%
Pressure (altimeter): 30.22 in. Hg (1023 hPa)
Pressure tendency: 0.02 inches (0.7 hPa) lower than three hours ago
ob: KLKV 260853Z AUTO 33005KT 10SM CLR M09/M11 A3022 RMK AO2 SLP271 T10891106 56007 FZRANO
cycle: 9

Station Type Date Time Source
KLKV TAF UTC NOAA

Error!

Example: see airport list